Maria Dolores — 9HBZ8 — position and weather

sailwx.info

Track history (hours):
 
Tides and Currents Weather Stations Pressure Air Temp Water Temp Dewpoint Dewpoint Depression Visibility Wind Speed Wind Dir Waves Ship Positions

Maria Dolores

Last reported at 2017-Nov-13 01:59 UTC. Time now 2017-Nov-21 06:24 UTC.
Position N 36°01' W 005°36'.
Warning: this ship's position is 8 days out of date.

Length 68 m; draft 2.2 m.

Type: Ship. MMSI: 215883000.

Date/timePositionNaut miles runAvg speedWind from/ knotsBaromVisibWave heightAir tempDewpointWater temp
2017-Nov-13 01:59N 36°01' W 005°36'0 0.0
2017-Nov-13 01:30N 36°01' W 005°36'0 0.0
2017-Nov-13 00:57N 36°01' W 005°36'0 0.0
2017-Nov-13 00:30N 36°01' W 005°36'0 0.0
2017-Nov-12 23:57N 36°01' W 005°36'0 0.0
2017-Nov-12 23:29N 36°01' W 005°36'0 0.0
2017-Nov-12 22:58N 36°01' W 005°36'3 0.8
2017-Nov-12 19:12N 35°59' W 005°39'1 0.2
2017-Nov-12 15:13N 35°59' W 005°38'2 9.5
2017-Nov-12 14:59N 36°01' W 005°36'0 0.0
2017-Nov-12 14:30N 36°01' W 005°36'1 0.2
2017-Nov-12 07:13N 35°59' W 005°37'1 2.6
2017-Nov-12 06:40N 36°01' W 005°36'0 0.0
2017-Nov-12 06:30N 36°01' W 005°36'0 0.0
2017-Nov-12 06:00N 36°01' W 005°36'0 0.0
2017-Nov-12 05:23N 36°01' W 005°36'0 0.0
2017-Nov-12 04:59N 36°01' W 005°36'0 0.0
2017-Nov-12 04:30N 36°01' W 005°36'0 0.0
2017-Nov-12 04:00N 36°01' W 005°36'0 0.0
2017-Nov-12 03:30N 36°01' W 005°36'0 0.0
2017-Nov-12 03:00N 36°01' W 005°36'0 0.0
2017-Nov-12 02:30N 36°01' W 005°36'0 0.0
2017-Nov-12 02:00N 36°01' W 005°36'0 0.0
2017-Nov-11 22:18N 36°01' W 005°36'1 3.6
2017-Nov-11 21:59N 35°60' W 005°37'1 0.3
2017-Nov-11 19:11N 35°59' W 005°38'1 0.7
2017-Nov-11 18:19N 35°59' W 005°37'0 0.0
2017-Nov-11 07:20N 35°60' W 005°37'1 3.3
2017-Nov-11 06:54N 36°01' W 005°36'0 0.0
2017-Nov-11 06:30N 36°01' W 005°36'0 0.0
2017-Nov-11 05:41N 36°01' W 005°36'0 0.0
2017-Nov-11 05:20N 36°01' W 005°36'0 0.0
2017-Nov-11 04:57N 36°01' W 005°36'0 0.0
2017-Nov-11 03:56N 36°01' W 005°36'0 0.0
2017-Nov-10 22:11N 36°01' W 005°36'210.5
2017-Nov-10 22:00N 35°59' W 005°37'2 0.1
2017-Nov-10 06:29N 36°01' W 005°36'0 0.0
2017-Nov-10 05:58N 36°01' W 005°36'0 0.0
2017-Nov-10 05:30N 36°01' W 005°36'0 0.0
2017-Nov-10 05:00N 36°01' W 005°36'0 0.0
2017-Nov-10 04:30N 36°01' W 005°36'0 0.0
2017-Nov-10 04:00N 36°01' W 005°36'0 0.0
2017-Nov-10 03:30N 36°01' W 005°36'0 0.0
2017-Nov-10 03:00N 36°01' W 005°36'0 0.0
2017-Nov-10 02:30N 36°01' W 005°36'0 0.0
2017-Nov-10 01:57N 36°01' W 005°36'0 0.0
2017-Nov-10 01:30N 36°01' W 005°36'0 0.0
2017-Nov-10 01:00N 36°01' W 005°36'0 0.0
2017-Nov-10 00:30N 36°01' W 005°36'0 0.0
2017-Nov-09 23:59N 36°01' W 005°36'0 0.0
2017-Nov-09 23:30N 36°01' W 005°36'0 0.0
2017-Nov-09 23:00N 36°01' W 005°36'0 0.0
2017-Nov-09 22:29N 36°01' W 005°36'2 5.2
2017-Nov-09 22:00N 35°58' W 005°37'  
2017-Nov-07 17:45N 35°47' W 005°48'1 0.9
2017-Nov-07 17:05N 35°47' W 005°48'0 0.0
2017-Nov-07 16:36N 35°47' W 005°48'0 0.1
2017-Nov-07 16:27N 35°47' W 005°48'0 0.7
2017-Nov-07 16:01N 35°47' W 005°48'1224.1
2017-Nov-07 15:31N 35°58' W 005°41'5 7.0
2017-Nov-07 14:51N 36°01' W 005°36'0 0.0
2017-Nov-07 14:30N 36°01' W 005°36'815.9
2017-Nov-07 14:01N 35°55' W 005°43'917.4
2017-Nov-07 13:30N 35°47' W 005°48'0 0.0
2017-Nov-07 13:00N 35°47' W 005°48'0 0.0
2017-Nov-07 12:30N 35°47' W 005°48'0 0.0
2017-Nov-07 11:56N 35°47' W 005°48'717.5
2017-Nov-07 11:30N 35°55' W 005°46'1020.0
2017-Nov-07 11:00N 36°01' W 005°36'0 0.0
2017-Nov-07 10:30N 36°01' W 005°36'4 7.6
2017-Nov-07 10:00N 35°58' W 005°39'  
Track history (hours):
 
Tides and Currents Weather Stations Pressure Air Temp Water Temp Dewpoint Dewpoint Depression Visibility Wind Speed Wind Dir Waves Ship Positions

Maria Dolores

Last reported at 2017-Nov-13 01:59 UTC. Time now 2017-Nov-21 06:24 UTC.
Position N 36°01' W 005°36'.
Warning: this ship's position is 8 days out of date.

Length 68 m; draft 2.2 m.

Type: Ship. MMSI: 215883000.

Date/timePositionNaut miles runAvg speedWind from/ knotsBaromVisibWave heightAir tempDewpointWater temp
2017-Nov-13 01:59N 36°01' W 005°36'0 0.0
2017-Nov-13 01:30N 36°01' W 005°36'0 0.0
2017-Nov-13 00:57N 36°01' W 005°36'0 0.0
2017-Nov-13 00:30N 36°01' W 005°36'0 0.0
2017-Nov-12 23:57N 36°01' W 005°36'0 0.0
2017-Nov-12 23:29N 36°01' W 005°36'0 0.0
2017-Nov-12 22:58N 36°01' W 005°36'3 0.8
2017-Nov-12 19:12N 35°59' W 005°39'1 0.2
2017-Nov-12 15:13N 35°59' W 005°38'2 9.5
2017-Nov-12 14:59N 36°01' W 005°36'0 0.0
2017-Nov-12 14:30N 36°01' W 005°36'1 0.2
2017-Nov-12 07:13N 35°59' W 005°37'1 2.6
2017-Nov-12 06:40N 36°01' W 005°36'0 0.0
2017-Nov-12 06:30N 36°01' W 005°36'0 0.0
2017-Nov-12 06:00N 36°01' W 005°36'0 0.0
2017-Nov-12 05:23N 36°01' W 005°36'0 0.0
2017-Nov-12 04:59N 36°01' W 005°36'0 0.0
2017-Nov-12 04:30N 36°01' W 005°36'0 0.0
2017-Nov-12 04:00N 36°01' W 005°36'0 0.0
2017-Nov-12 03:30N 36°01' W 005°36'0 0.0
2017-Nov-12 03:00N 36°01' W 005°36'0 0.0
2017-Nov-12 02:30N 36°01' W 005°36'0 0.0
2017-Nov-12 02:00N 36°01' W 005°36'0 0.0
2017-Nov-11 22:18N 36°01' W 005°36'1 3.6
2017-Nov-11 21:59N 35°60' W 005°37'1 0.3
2017-Nov-11 19:11N 35°59' W 005°38'1 0.7
2017-Nov-11 18:19N 35°59' W 005°37'0 0.0
2017-Nov-11 07:20N 35°60' W 005°37'1 3.3
2017-Nov-11 06:54N 36°01' W 005°36'0 0.0
2017-Nov-11 06:30N 36°01' W 005°36'0 0.0
2017-Nov-11 05:41N 36°01' W 005°36'0 0.0
2017-Nov-11 05:20N 36°01' W 005°36'0 0.0
2017-Nov-11 04:57N 36°01' W 005°36'0 0.0
2017-Nov-11 03:56N 36°01' W 005°36'0 0.0
2017-Nov-10 22:11N 36°01' W 005°36'210.5
2017-Nov-10 22:00N 35°59' W 005°37'2 0.1
2017-Nov-10 06:29N 36°01' W 005°36'0 0.0
2017-Nov-10 05:58N 36°01' W 005°36'0 0.0
2017-Nov-10 05:30N 36°01' W 005°36'0 0.0
2017-Nov-10 05:00N 36°01' W 005°36'0 0.0
2017-Nov-10 04:30N 36°01' W 005°36'0 0.0
2017-Nov-10 04:00N 36°01' W 005°36'0 0.0
2017-Nov-10 03:30N 36°01' W 005°36'0 0.0
2017-Nov-10 03:00N 36°01' W 005°36'0 0.0
2017-Nov-10 02:30N 36°01' W 005°36'0 0.0
2017-Nov-10 01:57N 36°01' W 005°36'0 0.0
2017-Nov-10 01:30N 36°01' W 005°36'0 0.0
2017-Nov-10 01:00N 36°01' W 005°36'0 0.0
2017-Nov-10 00:30N 36°01' W 005°36'0 0.0
2017-Nov-09 23:59N 36°01' W 005°36'0 0.0
2017-Nov-09 23:30N 36°01' W 005°36'0 0.0
2017-Nov-09 23:00N 36°01' W 005°36'0 0.0
2017-Nov-09 22:29N 36°01' W 005°36'2 5.2
2017-Nov-09 22:00N 35°58' W 005°37'  
2017-Nov-07 17:45N 35°47' W 005°48'1 0.9
2017-Nov-07 17:05N 35°47' W 005°48'0 0.0
2017-Nov-07 16:36N 35°47' W 005°48'0 0.1
2017-Nov-07 16:27N 35°47' W 005°48'0 0.7
2017-Nov-07 16:01N 35°47' W 005°48'1224.1
2017-Nov-07 15:31N 35°58' W 005°41'5 7.0
2017-Nov-07 14:51N 36°01' W 005°36'0 0.0
2017-Nov-07 14:30N 36°01' W 005°36'815.9
2017-Nov-07 14:01N 35°55' W 005°43'917.4
2017-Nov-07 13:30N 35°47' W 005°48'0 0.0
2017-Nov-07 13:00N 35°47' W 005°48'0 0.0
2017-Nov-07 12:30N 35°47' W 005°48'0 0.0
2017-Nov-07 11:56N 35°47' W 005°48'717.5
2017-Nov-07 11:30N 35°55' W 005°46'1020.0
2017-Nov-07 11:00N 36°01' W 005°36'0 0.0
2017-Nov-07 10:30N 36°01' W 005°36'4 7.6
2017-Nov-07 10:00N 35°58' W 005°39'  

Dump ship's entire track history